Главная страница
METAR-TAF:

METAR-TAF

Аэропорты :

Kruger Mpumalanga International Airport

Национальный парк Крюгера, Южно-Африканская Республика

широта: 25-23-00S, долгота: 31-06-20E, высота над уровнем моря: 862 м

Текущие метеонаблюдения

Эта сводка был подготовлена 27 минут назад, в 21:00 UTC
Ветер 6 Узел от северо-восточный
Температура 25°C
Влажность 57%
Давление 1015 hPa

METAR: FAKN 042100Z AUTO 05006KT //// // ////// 25/16 Q1015

Время: 23:27 (21:27 UTC)

Прогноз

Эта сводка был подготовлена 12 часа и 27 минут назад, в 09:00 UTC
Прогноз действительный с 04-го 10 UTC до 04-го 18 UTC
Ветер 3 Узел переменных направлений
Видимость 10 км и более
Отдельные облака на высоте 4000 фута
Вероятность 30% :
временами
С 04-го 12 UTC до 04-го 18 UTC
небольшая облачность на высоте 4000 фута, Кучево-дождевые.
гроза, небольшой дождь,

TAF: FAKN 040900Z 0410/0418 VRB03KT 9999 SCT040 TX31/0413Z TN24/0418Z PROB30 TEMPO 0412/0418 -TSRA FEW040CB

Метеонаблюдения и прогнозы для более 4000 аэропортов (сводки METAR и TAF).

Имеющиеся станции представлены на карте желтыми и красными точками.

Чтобы увидеть название станции, наведите на нее мышь.

Затем щелкните, чтобы увидеть метеонаблюдения и метеопрогнозы.

Управление картой: чтобы увеличить масштаб, щелкните зеленые кнопки с черным крестиком; чтобы уменьшить масштаб, щелкните зеленую кнопку с тире; для просмотра соседних карт щелкайте зеленые стрелки.


METAR-TAF: